• Join FlightAware (Why Join?)
  • Login
  • US Flag 
12:47PM EST


 

Airport Tracker/Info


-or-


 

Live Flight TrackerFlight Track Log ✈ THY2468 ✈ 16-Jun-2013 ✈ LTBA / IST - LTAF / ADA

Flight Track Log - Related Links

Times and Time Zones

All times are in EDT time to prevent confusion due to time zone crossing. See the THY2468 flight status page for this flight to view local times or setup timezone preferences in your user account.

Time Position Orientation Groundspeed Altitude Reporting Facility
EDT Latitude Longitude Course Direction KTS MPH feet Rate Location/Type
11:22AM 40.5294 29.6138 126° Southeast  Level Estimated
11:23AM 40.4650 29.7262 127° Southeast  Level Estimated
11:24AM 40.4005 29.8384 127° Southeast  Level Estimated
11:25AM 40.3359 29.9503 127° Southeast  Level Estimated
11:26AM 40.2713 30.0620 127° Southeast  Level Estimated
11:27AM 40.2065 30.1736 127° Southeast  Level Estimated
11:28AM 40.1415 30.2849 127° Southeast  Level Estimated
11:29AM 40.0765 30.3960 127° Southeast  Level Estimated
11:30AM 40.0114 30.5068 127° Southeast  Level Estimated
11:31AM 39.9462 30.6175 128° Southeast  Level Estimated
11:32AM 39.8808 30.7280 128° Southeast  Level Estimated
11:33AM 39.8154 30.8382 128° Southeast  Level Estimated
11:34AM 39.7499 30.9483 128° Southeast  Level Estimated
11:35AM 39.6842 31.0581 128° Southeast  Level Estimated
11:36AM 39.6185 31.1677 128° Southeast  Level Estimated
11:37AM 39.5526 31.2771 128° Southeast  Level Estimated
11:38AM 39.4867 31.3863 128° Southeast  Level Estimated
11:39AM 39.4206 31.4953 128° Southeast  Level Estimated
11:40AM 39.3545 31.6041 128° Southeast  Level Estimated
11:41AM 39.2882 31.7127 128° Southeast  Level Estimated
11:42AM 39.2218 31.8211 128° Southeast  Level Estimated
11:43AM 39.1554 31.9293 128° Southeast  Level Estimated
11:44AM 39.0888 32.0372 128° Southeast  Level Estimated
11:45AM 39.0222 32.1450 129° Southeast  Level Estimated
11:46AM 38.9554 32.2525 129° Southeast  Level Estimated
11:47AM 38.8885 32.3599 129° Southeast  Level Estimated
11:48AM 38.8216 32.4671 129° Southeast  Level Estimated
11:49AM 38.7546 32.5740 129° Southeast  Level Estimated
11:50AM 38.6874 32.6808 129° Southeast  Level Estimated
11:51AM 38.6202 32.7873 129° Southeast  Level Estimated
11:52AM 38.5528 32.8937 129° Southeast  Level Estimated
11:53AM 38.4854 32.9999 129° Southeast  Level Estimated
11:54AM 38.4179 33.1058 129° Southeast  Level Estimated
11:55AM 38.3502 33.2116 129° Southeast  Level Estimated
11:56AM 38.2825 33.3172 129° Southeast  Level Estimated
11:57AM 38.2147 33.4225 129° Southeast  Level Estimated
11:58AM 38.1468 33.5277 129° Southeast  Level Estimated
11:59AM 38.0788 33.6327 129° Southeast  Level Estimated
12:00PM 38.0107 33.7374 129° Southeast  Level Estimated
12:01PM 37.9425 33.8420 130° Southeast  Level Estimated
12:02PM 37.8742 33.9464 130° Southeast  Level Estimated
12:03PM 37.8058 34.0506 130° Southeast  Level Estimated
12:04PM 37.7374 34.1546 130° Southeast  Level Estimated
12:05PM 37.6688 34.2584 130° Southeast  Level Estimated
12:06PM 37.6001 34.3620 130° Southeast  Level Estimated
12:07PM 37.5314 34.4655 130° Southeast  Level Estimated
12:08PM 37.4626 34.5687 130° Southeast  Level Estimated
12:09PM 37.3937 34.6718 130° Southeast  Level Estimated
12:10PM 37.3246 34.7746 130° Southeast  Level Estimated
12:11PM 37.2555 34.8773 130° Southeast  Level Estimated
12:12PM 37.1864 34.9798 130° Southeast  Level Estimated
12:13PM 37.1171 35.0821 130° Southeast  Level Estimated
12:14PM 37.0477 35.1842 130° Southeast  Level Estimated
12:15PM 36.9822 35.2804 130° Southeast  Level Estimated
12:16PM 36.9822 35.2804 202° Southwest  Level Estimated
12:17PM 36.9822 35.2804 202° Southwest  Level Estimated
12:18PM 36.9822 35.2804 202° Southwest  Level Estimated
12:19PM 36.9822 35.2804 202° Southwest  Level Estimated
12:20PM 36.9822 35.2804 202° Southwest  Level Estimated
12:21PM 36.9822 35.2804 202° Southwest  Level Estimated
12:22PM 36.9822 35.2804 202° Southwest  Level Estimated
12:23PM 36.9822 35.2804 202° Southwest  Level Estimated
12:24PM 36.9822 35.2804 202° Southwest  Level Estimated
12:25PM 36.9822 35.2804 202° Southwest  Level Estimated
12:26PM 36.9822 35.2804 202° Southwest  Level Estimated
12:27PM 36.9822 35.2804 202° Southwest  Level Estimated
12:28PM 36.9822 35.2804 202° Southwest  Level Estimated
12:29PM 36.9822 35.2804 202° Southwest  Level Estimated
12:30PM 36.9822 35.2804 202° Southwest  Level Estimated
12:31PM 36.9822 35.2804 202° Southwest  Level Estimated